createdAt,value
2022-11-03T00:01:12.569Z,30.9
2022-11-03T00:03:30.253Z,30.9
2022-11-03T00:05:48.276Z,30.7
2022-11-03T00:08:06.065Z,31.5
2022-11-03T00:10:23.933Z,32.4
2022-11-03T00:12:41.743Z,31.4
2022-11-03T00:15:00.268Z,31.8
2022-11-03T00:17:17.674Z,31.8
2022-11-03T00:21:53.177Z,31.3
2022-11-03T00:24:10.993Z,31.3
2022-11-03T00:26:28.826Z,31.8
2022-11-03T00:28:46.582Z,31.8
2022-11-03T00:31:04.565Z,32.1
2022-11-03T00:33:22.182Z,31.1
2022-11-03T00:35:40.419Z,31.3
2022-11-03T00:37:57.886Z,34.6
2022-11-03T00:40:16.139Z,34.6
2022-11-03T00:42:33.343Z,31.1
2022-11-03T00:44:51.334Z,30.9
2022-11-03T00:47:09.000Z,30.9
2022-11-03T00:49:26.746Z,30.8
2022-11-03T00:51:44.831Z,31.5
2022-11-03T00:54:02.549Z,30.8
2022-11-03T00:56:20.525Z,31.1
2022-11-03T00:58:38.300Z,31.7
2022-11-03T01:00:56.226Z,31.6
2022-11-03T01:03:13.880Z,35
2022-11-03T01:05:31.782Z,30.4
2022-11-03T01:07:49.570Z,31.1
2022-11-03T01:10:07.315Z,30.5
2022-11-03T01:12:25.097Z,35
2022-11-03T01:14:42.820Z,29.9
2022-11-03T01:17:00.836Z,30.9
2022-11-03T01:19:18.595Z,30.4
2022-11-03T01:21:36.799Z,30.6
2022-11-03T01:23:54.262Z,31.6
2022-11-03T01:26:12.255Z,31.9
2022-11-03T01:28:29.825Z,34.9
2022-11-03T01:30:47.890Z,30.3
2022-11-03T01:33:05.638Z,31.2
2022-11-03T01:35:22.994Z,34.8
2022-11-03T01:37:41.033Z,29.9
2022-11-03T01:39:58.478Z,34.9
2022-11-03T01:42:16.543Z,30.7
2022-11-03T01:44:34.658Z,31.3
2022-11-03T01:46:52.079Z,30.9
2022-11-03T01:49:10.004Z,30.7
2022-11-03T01:51:28.000Z,30.6
2022-11-03T01:56:03.240Z,34.8
2022-11-03T01:58:21.207Z,30.1
2022-11-03T02:00:38.904Z,31.4
2022-11-03T02:02:56.643Z,34.6
2022-11-03T02:05:14.382Z,30.4
2022-11-03T02:07:34.547Z,31.3
2022-11-03T02:09:50.123Z,30.9
2022-11-03T02:12:08.106Z,30.9
2022-11-03T02:14:25.843Z,31.4
2022-11-03T02:16:44.971Z,30.6
2022-11-03T02:19:01.607Z,30.6
2022-11-03T02:21:19.158Z,35.1
2022-11-03T02:23:36.884Z,34.4
2022-11-03T02:25:54.683Z,30.6
2022-11-03T02:28:12.602Z,31.2
2022-11-03T02:30:30.365Z,31.2
2022-11-03T02:32:48.364Z,31.2
2022-11-03T02:35:06.164Z,30.4
2022-11-03T02:37:24.720Z,30.6
2022-11-03T02:39:41.854Z,31.3
2022-11-03T02:41:59.633Z,31.3
2022-11-03T02:44:17.544Z,31.1
2022-11-03T02:46:35.342Z,31.2
2022-11-03T02:51:10.827Z,34.3
2022-11-03T02:53:29.105Z,30.1
2022-11-03T02:55:46.663Z,31.3
2022-11-03T02:58:04.550Z,31
2022-11-03T03:00:22.375Z,30.8
2022-11-03T03:02:40.303Z,30.5
2022-11-03T03:04:57.923Z,31.1
2022-11-03T03:07:15.549Z,34.7
2022-11-03T03:09:34.069Z,30.4
2022-11-03T03:11:51.201Z,35.1
2022-11-03T03:14:09.541Z,35.2
2022-11-03T03:16:26.586Z,30.4
2022-11-03T03:18:44.765Z,30.4
2022-11-03T03:21:02.321Z,31.3
2022-11-03T03:23:20.189Z,34.8
2022-11-03T03:25:37.932Z,30.1
2022-11-03T03:27:55.643Z,30.7
2022-11-03T03:30:14.286Z,31.1
2022-11-03T03:32:31.466Z,31.1
2022-11-03T03:34:53.609Z,31.4
2022-11-03T03:37:11.362Z,31
2022-11-03T03:39:29.228Z,30.8
2022-11-03T03:41:46.749Z,31.8
2022-11-03T03:44:04.481Z,31.2
2022-11-03T03:46:22.203Z,30.9
2022-11-03T03:48:39.846Z,35.1
2022-11-03T03:50:57.444Z,34.6
2022-11-03T03:53:15.138Z,30.6
2022-11-03T03:55:32.875Z,30.7
2022-11-03T03:57:50.690Z,31.6
2022-11-03T04:00:08.448Z,31.1
2022-11-03T04:02:26.375Z,30.8
2022-11-03T04:04:43.986Z,30.9
2022-11-03T04:07:01.710Z,30.3
2022-11-03T04:09:19.331Z,34.8
2022-11-03T04:11:36.965Z,29.9
2022-11-03T04:13:54.764Z,30.6
2022-11-03T04:16:12.465Z,31.4
2022-11-03T04:18:30.240Z,30.4
2022-11-03T04:20:47.805Z,34.9
2022-11-03T04:25:23.432Z,34.9
2022-11-03T04:27:40.971Z,34.9
2022-11-03T04:29:58.681Z,31.2
2022-11-03T04:32:16.404Z,30.9
2022-11-03T04:34:34.050Z,34.7
2022-11-03T04:36:51.792Z,30.6
2022-11-03T04:39:09.496Z,30.6
2022-11-03T04:41:27.738Z,30.9
2022-11-03T04:43:45.090Z,31.2
2022-11-03T04:46:02.716Z,34.9
2022-11-03T04:48:20.392Z,30.6
2022-11-03T04:50:39.844Z,31
2022-11-03T04:52:55.881Z,31.4
2022-11-03T04:55:13.658Z,30.8
2022-11-03T04:57:31.398Z,31.3
2022-11-03T04:59:49.177Z,31
2022-11-03T05:02:07.014Z,30.8
2022-11-03T05:04:24.683Z,30.7
2022-11-03T05:06:42.522Z,30
2022-11-03T05:09:00.405Z,30.7
2022-11-03T05:11:18.799Z,31.1
2022-11-03T05:13:36.292Z,32.1
2022-11-03T05:15:53.885Z,34.8
2022-11-03T05:18:11.615Z,30.1
2022-11-03T05:20:33.261Z,31.5
2022-11-03T05:22:47.352Z,34.8
2022-11-03T05:25:04.907Z,30.4
2022-11-03T05:27:22.857Z,31.4
2022-11-03T05:29:40.523Z,34.8
2022-11-03T05:31:58.540Z,30.8
2022-11-03T05:34:16.238Z,34.6
2022-11-03T05:36:34.263Z,30.7
2022-11-03T05:38:51.939Z,31
2022-11-03T05:41:10.019Z,34.9
2022-11-03T05:43:27.547Z,31.1
2022-11-03T05:45:45.328Z,30.7
2022-11-03T05:48:03.697Z,31.9
2022-11-03T05:50:21.111Z,31.6
2022-11-03T05:52:39.065Z,31.1
2022-11-03T05:54:56.776Z,34.5
2022-11-03T05:57:14.957Z,31.1
2022-11-03T05:59:32.522Z,30.4
2022-11-03T06:01:51.293Z,31.7
2022-11-03T06:04:08.921Z,30.8
2022-11-03T06:06:31.899Z,31.3
2022-11-03T06:08:45.823Z,31.2
2022-11-03T06:11:02.423Z,31.5
2022-11-03T06:13:20.519Z,31.3
2022-11-03T06:15:38.259Z,31
2022-11-03T06:17:56.145Z,31.9
2022-11-03T06:20:13.937Z,31.4
2022-11-03T06:22:31.771Z,35.2
2022-11-03T06:24:49.593Z,31.2
2022-11-03T06:27:07.439Z,31.4
2022-11-03T06:31:42.915Z,31.6
2022-11-03T06:36:18.625Z,34.7
2022-11-03T06:38:36.428Z,31.1
2022-11-03T06:40:54.146Z,34.8
2022-11-03T06:43:12.237Z,31.2
2022-11-03T06:45:29.881Z,31.4
2022-11-03T06:47:47.591Z,31.4
2022-11-03T06:50:05.149Z,34.7
2022-11-03T06:54:40.867Z,32.4
2022-11-03T06:56:58.549Z,31.8
2022-11-03T06:59:16.525Z,32.3
2022-11-03T07:01:48.017Z,34.8
2022-11-03T07:04:05.682Z,31.6
2022-11-03T07:06:23.354Z,31.8
2022-11-03T07:08:41.172Z,34.8
2022-11-03T07:10:58.663Z,31.3
2022-11-03T07:13:16.372Z,32
2022-11-03T07:15:34.051Z,31.9
2022-11-03T07:17:51.699Z,32
2022-11-03T07:20:09.545Z,32.1
2022-11-03T07:22:27.055Z,32
2022-11-03T07:27:02.335Z,32.3
2022-11-03T07:29:19.995Z,31.8
2022-11-03T07:31:37.458Z,34.6
2022-11-03T07:33:55.099Z,31.7
2022-11-03T07:36:31.411Z,31.9
2022-11-03T07:38:48.981Z,34.8
2022-11-03T07:41:06.545Z,31.5
2022-11-03T07:43:24.236Z,32.3
2022-11-03T07:45:41.556Z,34.6
2022-11-03T07:48:01.797Z,35.2
2022-11-03T07:50:16.737Z,31.7
2022-11-03T07:52:34.429Z,32.3
2022-11-03T07:54:52.096Z,32.8
2022-11-03T07:57:09.758Z,32.8
2022-11-03T07:59:27.423Z,34.4
2022-11-03T08:01:45.189Z,32.1
2022-11-03T08:04:02.796Z,32.4
2022-11-03T08:06:20.293Z,34.5
2022-11-03T08:08:37.676Z,32.1
2022-11-03T08:10:55.116Z,30.9
2022-11-03T08:13:12.474Z,30.8
2022-11-03T08:15:29.942Z,30.6
2022-11-03T08:17:48.784Z,30.9
2022-11-03T08:20:04.972Z,30.9
2022-11-03T08:22:21.989Z,30.9
2022-11-03T08:24:53.917Z,30.6
2022-11-03T08:29:28.357Z,30.9
2022-11-03T08:31:45.695Z,30.9
2022-11-03T08:34:02.804Z,30.8
2022-11-03T08:36:20.080Z,30.8
2022-11-03T08:38:37.395Z,30.7
2022-11-03T08:40:55.315Z,30.9
2022-11-03T08:43:11.938Z,31
2022-11-03T08:45:29.297Z,30.9
2022-11-03T08:47:46.197Z,30.9
2022-11-03T08:50:03.416Z,34.5
2022-11-03T08:52:20.540Z,29.9
2022-11-03T08:54:37.784Z,34.4
2022-11-03T08:56:55.292Z,34.9
2022-11-03T08:59:12.644Z,35.3
2022-11-03T09:01:30.135Z,35.4
2022-11-03T09:03:47.608Z,35.4
2022-11-03T09:06:05.056Z,35.8
2022-11-03T09:12:19.503Z,35.9
2022-11-03T09:14:36.986Z,35.3
2022-11-03T09:16:54.735Z,35.7
2022-11-03T09:19:12.274Z,35.5
2022-11-03T09:21:30.005Z,35.8
2022-11-03T09:23:47.480Z,35.8
2022-11-03T09:26:05.168Z,35.5
2022-11-03T09:28:22.661Z,35.6
2022-11-03T09:30:59.726Z,35.6
2022-11-03T09:33:17.149Z,36.1
2022-11-03T09:35:34.650Z,35.8
2022-11-03T09:37:52.253Z,35.8
2022-11-03T09:40:09.746Z,35.8
2022-11-03T09:42:42.358Z,36.1
2022-11-03T09:44:59.956Z,35.7
2022-11-03T09:47:17.598Z,35.9
2022-11-03T09:49:35.043Z,35.3
2022-11-03T09:51:52.651Z,35.8
2022-11-03T09:54:10.126Z,35.7
2022-11-03T09:56:27.801Z,35.7
2022-11-03T09:58:48.626Z,35.6
2022-11-03T10:01:02.955Z,35.7
2022-11-03T10:03:20.435Z,35.8
2022-11-03T10:05:38.017Z,35.9
2022-11-03T10:10:13.201Z,35.6
2022-11-03T10:12:31.051Z,35.8
2022-11-03T10:14:48.409Z,36.1
2022-11-03T10:17:06.045Z,35.8
2022-11-03T10:19:23.555Z,35.6
2022-11-03T10:21:41.152Z,35.8
2022-11-03T10:23:58.841Z,35.7
2022-11-03T10:26:16.321Z,35.8
2022-11-03T10:28:33.977Z,35.5
2022-11-03T10:31:15.477Z,35.6
2022-11-03T10:33:19.973Z,36.4
2022-11-03T10:37:55.923Z,35.9
2022-11-03T10:40:28.364Z,36.4
2022-11-03T10:42:51.069Z,37.1
2022-11-03T10:45:08.703Z,36
2022-11-03T10:47:50.256Z,35.6
2022-11-03T10:50:07.976Z,36
2022-11-03T10:52:25.589Z,36.3
2022-11-03T10:54:43.242Z,35.4
2022-11-03T10:57:00.873Z,35.9
2022-11-03T10:59:18.496Z,36
2022-11-03T11:01:36.283Z,35.3
2022-11-03T11:03:53.768Z,35.6
2022-11-03T11:06:11.411Z,35.9
2022-11-03T11:08:29.293Z,36.1
2022-11-03T11:10:46.730Z,35.8
2022-11-03T11:13:04.734Z,35.6
2022-11-03T11:15:21.991Z,35.7
2022-11-03T11:17:39.572Z,35.8
2022-11-03T11:19:57.247Z,36.2
2022-11-03T11:22:14.861Z,35.5
2022-11-03T11:24:32.413Z,35.6
2022-11-03T11:26:50.079Z,35.8
2022-11-03T11:29:07.940Z,35.7
2022-11-03T11:31:25.298Z,36.3
2022-11-03T11:33:42.934Z,35.9
2022-11-03T11:36:00.596Z,35.6
2022-11-03T11:38:18.309Z,36.1
2022-11-03T11:40:35.832Z,35.8
2022-11-03T11:42:53.580Z,36.3
2022-11-03T11:45:11.136Z,35.9
2022-11-03T11:47:29.009Z,35.9
2022-11-03T11:49:46.378Z,35.4
2022-11-03T11:52:04.037Z,35.6
2022-11-03T11:54:34.490Z,35.7
2022-11-03T11:56:53.153Z,35.5
2022-11-03T11:59:09.638Z,36.2
2022-11-03T12:01:27.334Z,35.6
2022-11-03T12:03:44.872Z,35.5
2022-11-03T12:06:02.474Z,35.8
2022-11-03T12:10:37.706Z,35.8
2022-11-03T12:12:55.409Z,35.2
2022-11-03T12:17:30.652Z,36.4
2022-11-03T12:19:48.232Z,35.2
2022-11-03T12:22:05.979Z,35.3
2022-11-03T12:24:23.445Z,35
2022-11-03T12:26:41.043Z,35.3
2022-11-03T12:28:58.774Z,35.6
2022-11-03T12:31:16.421Z,35.6
2022-11-03T12:33:36.263Z,35.3
2022-11-03T12:35:53.861Z,35.6
2022-11-03T12:38:11.438Z,35.4
2022-11-03T12:40:29.428Z,35.8
2022-11-03T12:42:46.826Z,35.4
2022-11-03T12:45:04.497Z,35.6
2022-11-03T12:49:39.576Z,35.7
2022-11-03T12:51:57.237Z,35.5
2022-11-03T12:54:14.807Z,35.3
2022-11-03T12:56:32.481Z,35.6
2022-11-03T12:58:50.159Z,35.4
2022-11-03T13:01:07.838Z,35.4
2022-11-03T13:03:25.440Z,35.7
2022-11-03T13:05:43.049Z,35.2
2022-11-03T13:08:00.658Z,35.2
2022-11-03T13:10:18.277Z,35.4
2022-11-03T13:12:35.902Z,35.3
2022-11-03T13:14:53.624Z,35.3
2022-11-03T13:17:11.263Z,35.4
2022-11-03T13:19:46.319Z,35.1
2022-11-03T13:22:04.006Z,35.3
2022-11-03T13:24:21.562Z,34.9
2022-11-03T13:26:39.165Z,35
2022-11-03T13:28:56.781Z,35.7
2022-11-03T13:35:49.677Z,35.6
2022-11-03T13:38:07.383Z,35.9
2022-11-03T13:43:00.818Z,36.1
2022-11-03T13:45:18.600Z,35.4
2022-11-03T13:51:32.255Z,35.4
2022-11-03T14:01:32.783Z,36
2022-11-03T14:05:15.562Z,35.8
2022-11-03T14:07:33.190Z,36.1
2022-11-03T14:09:51.121Z,35.1
2022-11-03T14:12:08.457Z,35.4
2022-11-03T14:14:26.245Z,34.9
2022-11-03T14:16:43.916Z,35.4
2022-11-03T14:19:01.480Z,35.5
2022-11-03T14:21:19.099Z,34.9
2022-11-03T14:23:36.625Z,35.2
2022-11-03T14:26:00.312Z,35.4
2022-11-03T14:28:28.441Z,34.9
2022-11-03T14:30:46.065Z,35.3
2022-11-03T14:33:03.737Z,35.4
2022-11-03T14:35:21.331Z,35.2
2022-11-03T14:37:39.008Z,34.9
2022-11-03T14:39:56.666Z,35.7
2022-11-03T14:42:14.317Z,35.1
2022-11-03T14:44:31.883Z,35.2
2022-11-03T14:46:49.613Z,35.3
2022-11-03T14:49:07.204Z,34.9
2022-11-03T14:51:24.798Z,35.2
2022-11-03T14:53:42.719Z,35.1
2022-11-03T14:56:00.299Z,34.7
2022-11-03T14:58:17.860Z,35.6
2022-11-03T15:00:35.460Z,35.3
2022-11-03T15:02:53.211Z,35.4
2022-11-03T15:05:10.780Z,35.3
2022-11-03T15:07:28.304Z,35.1
2022-11-03T15:09:45.843Z,35.6
2022-11-03T15:12:03.146Z,32.9
2022-11-03T15:14:20.565Z,31.3
2022-11-03T15:18:55.330Z,31.1
2022-11-03T15:21:12.792Z,34.7
2022-11-03T15:27:13.284Z,31.2
2022-11-03T15:29:30.632Z,30.8
2022-11-03T15:31:48.675Z,30.8
2022-11-03T15:34:06.211Z,30.9
2022-11-03T15:36:22.712Z,30.6
2022-11-03T15:38:40.242Z,30.7
2022-11-03T15:40:57.436Z,30.5
2022-11-03T15:43:14.909Z,30.8
2022-11-03T15:45:32.282Z,30.6
2022-11-03T15:47:50.488Z,30.9
2022-11-03T15:50:07.444Z,30.8
2022-11-03T15:52:24.781Z,31.9
2022-11-03T15:54:42.812Z,32.1
2022-11-03T15:57:00.194Z,31.9
2022-11-03T15:59:17.528Z,34.4
2022-11-03T16:01:35.362Z,31.4
2022-11-03T16:04:02.015Z,31.9
2022-11-03T16:06:19.790Z,32.4
2022-11-03T16:08:56.043Z,32.3
2022-11-03T16:11:14.217Z,32.4
2022-11-03T16:13:31.486Z,32
2022-11-03T16:15:49.463Z,32.1
2022-11-03T16:20:24.995Z,31.9
2022-11-03T16:22:42.803Z,32.3
2022-11-03T16:25:00.388Z,31.9
2022-11-03T16:27:17.946Z,34.3
2022-11-03T16:29:35.504Z,35.4
2022-11-03T16:31:53.383Z,31.6
2022-11-03T16:34:11.109Z,31.7
2022-11-03T16:36:28.951Z,32
2022-11-03T16:38:46.591Z,32.1
2022-11-03T16:41:04.761Z,32.1
2022-11-03T16:43:22.178Z,32.2
2022-11-03T16:45:40.105Z,32
2022-11-03T16:47:57.679Z,32.1
2022-11-03T16:50:15.591Z,32.1
2022-11-03T16:52:33.127Z,34.9
2022-11-03T16:54:50.787Z,31.8
2022-11-03T16:57:08.605Z,32.1
2022-11-03T16:59:26.355Z,32
2022-11-03T17:01:44.231Z,32
2022-11-03T17:04:01.793Z,32.6
2022-11-03T17:06:19.692Z,32.3
2022-11-03T17:08:54.041Z,32.4
2022-11-03T17:11:12.192Z,31.9
2022-11-03T17:13:29.890Z,31.8
2022-11-03T17:15:47.595Z,31.8
2022-11-03T17:18:05.428Z,32.2
2022-11-03T17:22:41.059Z,32.3
2022-11-03T17:24:58.029Z,32
2022-11-03T17:27:15.765Z,32.2
2022-11-03T17:29:33.430Z,32.1
2022-11-03T17:31:50.976Z,32.1
2022-11-03T17:34:08.653Z,31.8
2022-11-03T17:36:26.322Z,32
2022-11-03T17:38:43.993Z,31.8
2022-11-03T17:41:01.640Z,32.5
2022-11-03T17:43:19.409Z,32.4
2022-11-03T17:45:37.004Z,32
2022-11-03T17:47:54.803Z,32.1
2022-11-03T17:50:12.512Z,32.3
2022-11-03T17:52:30.585Z,32.3
2022-11-03T17:54:47.950Z,31.9
2022-11-03T17:57:29.690Z,34.4
2022-11-03T17:59:47.464Z,31.4
2022-11-03T18:02:05.351Z,32.1
2022-11-03T18:04:22.898Z,31.9
2022-11-03T18:06:40.456Z,34.6
2022-11-03T18:08:58.518Z,31.4
2022-11-03T18:11:16.287Z,32.1
2022-11-03T18:13:34.596Z,31.9
2022-11-03T18:15:51.876Z,32.3
2022-11-03T18:18:10.025Z,34.4
2022-11-03T18:20:27.277Z,31.6
2022-11-03T18:22:45.258Z,32.2
2022-11-03T18:25:02.898Z,31.4
2022-11-03T18:27:25.074Z,31.8
2022-11-03T18:29:38.480Z,31.9
2022-11-03T18:31:56.233Z,32.1
2022-11-03T18:34:14.120Z,32.1
2022-11-03T18:36:31.608Z,34.6
2022-11-03T18:38:49.439Z,31
2022-11-03T18:41:07.020Z,34.9
2022-11-03T18:43:24.972Z,31.1
2022-11-03T18:45:42.513Z,34.4
2022-11-03T18:48:00.414Z,30.6
2022-11-03T18:50:18.079Z,31.4
2022-11-03T18:52:35.882Z,34.6
2022-11-03T18:54:53.667Z,31.6
2022-11-03T18:57:11.268Z,31.3
2022-11-03T18:59:30.485Z,31.9
2022-11-03T19:01:48.313Z,31.9
2022-11-03T19:04:06.036Z,31.9
2022-11-03T19:06:23.542Z,32.3
2022-11-03T19:08:40.992Z,34.9
2022-11-03T19:10:58.682Z,35.3
2022-11-03T19:13:16.292Z,31.4
2022-11-03T19:15:33.897Z,35.3
2022-11-03T19:18:10.288Z,31.3
2022-11-03T19:20:27.634Z,32
2022-11-03T19:22:45.193Z,31.6
2022-11-03T19:25:02.768Z,34.6
2022-11-03T19:27:20.378Z,31.3
2022-11-03T19:29:39.242Z,31.1
2022-11-03T19:34:13.441Z,34.5
2022-11-03T19:36:31.459Z,31.2
2022-11-03T19:38:49.057Z,31.4
2022-11-03T19:43:24.666Z,32.1
2022-11-03T19:45:42.355Z,32.1
2022-11-03T19:48:24.408Z,31.4
2022-11-03T19:50:38.256Z,31.9
2022-11-03T19:52:55.949Z,31.6
2022-11-03T19:55:13.792Z,31.7
2022-11-03T19:57:31.294Z,31.7
2022-11-03T19:59:48.914Z,31.6
2022-11-03T20:02:06.777Z,31.8
2022-11-03T20:04:24.164Z,31.4
2022-11-03T20:06:41.787Z,34.6
2022-11-03T20:08:59.399Z,31.3
2022-11-03T20:11:17.199Z,31.5
2022-11-03T20:13:34.881Z,31.8
2022-11-03T20:15:55.948Z,31
2022-11-03T20:18:10.187Z,31.2
2022-11-03T20:20:27.738Z,31.6
2022-11-03T20:22:45.286Z,34.6
2022-11-03T20:25:03.111Z,31.5
2022-11-03T20:27:20.693Z,31.4
2022-11-03T20:29:38.104Z,35.3
2022-11-03T20:31:55.699Z,35.3
2022-11-03T20:36:31.182Z,31.8
2022-11-03T20:38:48.882Z,32
2022-11-03T20:41:06.735Z,31.9
2022-11-03T20:43:24.185Z,31.9
2022-11-03T20:45:41.914Z,31.4
2022-11-03T20:47:59.538Z,31.8
2022-11-03T20:50:17.122Z,34.6
2022-11-03T20:52:34.663Z,34.8
2022-11-03T20:54:52.317Z,31.1
2022-11-03T20:57:09.994Z,31.6
2022-11-03T20:59:27.792Z,31.4
2022-11-03T21:01:45.577Z,31.6
2022-11-03T21:04:25.098Z,31.4
2022-11-03T21:09:00.363Z,31.4
2022-11-03T21:11:18.102Z,31.4
2022-11-03T21:13:35.797Z,30.8
2022-11-03T21:16:18.536Z,31
2022-11-03T21:18:27.574Z,31.5
2022-11-03T21:20:45.194Z,31.3
2022-11-03T21:23:12.992Z,34.8
2022-11-03T21:25:30.597Z,30.9
2022-11-03T21:27:48.251Z,31
2022-11-03T21:30:15.764Z,31.6
2022-11-03T21:32:33.300Z,31.6
2022-11-03T21:34:50.979Z,31.2
2022-11-03T21:37:09.036Z,31.3
2022-11-03T21:39:26.365Z,31.9
2022-11-03T21:41:44.090Z,31.8
2022-11-03T21:44:01.836Z,31.6
2022-11-03T21:46:19.608Z,31.4
2022-11-03T21:48:37.218Z,31.2
2022-11-03T21:50:54.846Z,31.1
2022-11-03T21:53:12.936Z,31.4
2022-11-03T21:55:30.324Z,31.6
2022-11-03T21:57:48.388Z,31.6
2022-11-03T22:00:05.613Z,31.5
2022-11-03T22:02:23.541Z,31.4
2022-11-03T22:04:40.822Z,34.4
2022-11-03T22:09:16.362Z,31.3
2022-11-03T22:11:33.996Z,31.2
2022-11-03T22:13:51.701Z,31.3
2022-11-03T22:16:09.371Z,31.5
2022-11-03T22:18:26.870Z,34.4
2022-11-03T22:20:44.591Z,30.7
2022-11-03T22:23:02.205Z,35.2
2022-11-03T22:27:37.463Z,31.9
2022-11-03T22:29:55.129Z,31.7
2022-11-03T22:32:12.859Z,31.6
2022-11-03T22:36:48.136Z,30.5
2022-11-03T22:39:05.833Z,31.3
2022-11-03T22:41:23.369Z,34.6
2022-11-03T22:43:40.913Z,34.9
2022-11-03T22:45:58.690Z,30.8
2022-11-03T22:48:16.342Z,31.4
2022-11-03T22:50:34.045Z,31.8
2022-11-03T22:52:51.709Z,31
2022-11-03T22:55:09.327Z,35.1
2022-11-03T22:57:27.046Z,31.4
2022-11-03T22:59:44.725Z,30.8
2022-11-03T23:02:02.421Z,34.9
2022-11-03T23:04:19.839Z,34.9
2022-11-03T23:06:37.526Z,31.1
2022-11-03T23:08:55.979Z,31.3
2022-11-03T23:11:12.953Z,31.8
2022-11-03T23:13:30.459Z,34.8
2022-11-03T23:18:06.022Z,31.9
2022-11-03T23:20:23.761Z,31.4
2022-11-03T23:22:41.331Z,31.5
2022-11-03T23:24:59.022Z,31.6
2022-11-03T23:27:16.742Z,31.2
2022-11-03T23:29:34.451Z,31.2
2022-11-03T23:31:52.712Z,31.2
2022-11-03T23:34:09.977Z,31.4
2022-11-03T23:36:27.569Z,31.6
2022-11-03T23:38:45.337Z,31.4
2022-11-03T23:41:03.102Z,31.1
2022-11-03T23:43:20.532Z,34.6
2022-11-03T23:45:38.151Z,30.2
2022-11-03T23:47:55.737Z,34.8
2022-11-03T23:50:13.637Z,34.9
2022-11-03T23:52:31.037Z,30.3
2022-11-03T23:54:48.963Z,31.2
2022-11-03T23:57:06.362Z,34.8
2022-11-03T23:59:23.989Z,30.6
